»·PEaware :: N151L KCNO-KBFL

N151L :: KCNO-KBFL

FLIGHT INFORMATION

Flight Status: Arrived
Operator: Privately registered:
United States
More flights under this callsign
Pilot: Dean B. (20222)
Aircraft: BEECH AIRCRAFT A90-E90 KING AIR
(BE9L)
More flights by this aircraft type
Origin: KCNO Chino
United States
Destination: KBFL Meadows
United States
More flights between these airports :: More routes between these airports
Route: +
File this flight plan on PilotEdge
Remarks:
Altitude:
(Current/Filed)
12,500ft
Speed:
(Current/Filed)
0kts
Departed: 27-Sep-18 08:33 PM
Arrived: 27-Sep-18 09:19 PM
Distance/Time
Traveled:
112nm/0:46
Distance/Time
To Go:
Arrived

Flight Plot

Page will automatically refresh every two minutes.

Flight plan parsing failed; only flown route is shown


Map Options




Map Legend


Flown Route
Filed Route
Departure Airport
Arrival Airport
Navaid (VOR, NDB)
Fix

Horizontal Profiles

Position Reports

Time Latitude Longitude Heading Altitude Ground
Speed
27-Sep-18 20:31 33.977439 -117.638531 359 625ft 0kts
27-Sep-18 20:32 33.976891 -117.637602 89 625ft 19kts
27-Sep-18 20:33 33.976787 -117.630867 153 625ft 9kts
27-Sep-18 20:34 33.976637 -117.630837 179 625ft 1kts
27-Sep-18 20:35 33.975715 -117.655747 269 1046ft 124kts
27-Sep-18 20:36 33.997318 -117.676746 341 2089ft 127kts
27-Sep-18 20:37 34.030828 -117.699899 337 2890ft 126kts
27-Sep-18 20:38 34.061633 -117.722639 337 4491ft 132kts
27-Sep-18 20:39 34.091345 -117.748092 326 6438ft 139kts
27-Sep-18 20:40 34.123393 -117.774397 318 8291ft 137kts
27-Sep-18 20:41 34.148399 -117.807258 325 10039ft 136kts
27-Sep-18 20:42 34.183640 -117.833116 327 10662ft 170kts
27-Sep-18 20:43 34.188133 -117.886775 271 10675ft 165kts
27-Sep-18 20:44 34.202758 -117.931393 337 11106ft 146kts
27-Sep-18 20:45 34.243547 -117.942799 358 11208ft 155kts
27-Sep-18 20:46 34.284348 -117.944667 357 11617ft 144kts
27-Sep-18 20:47 34.324752 -117.948880 352 11592ft 165kts
27-Sep-18 20:48 34.366310 -117.968294 293 11520ft 167kts
27-Sep-18 20:49 34.370816 -118.023184 291 11609ft 163kts
27-Sep-18 20:50 34.401866 -118.057392 324 11995ft 145kts
27-Sep-18 20:51 34.434988 -118.087084 323 12169ft 150kts
27-Sep-18 20:52 34.468256 -118.117608 322 12353ft 151kts
27-Sep-18 20:53 34.503105 -118.149754 322 12378ft 157kts
27-Sep-18 20:54 34.537702 -118.181819 322 12506ft 157kts
27-Sep-18 20:55 34.572252 -118.214186 322 12620ft 157kts
27-Sep-18 20:56 34.606670 -118.246784 322 12727ft 157kts
27-Sep-18 20:57 34.641022 -118.279662 321 12792ft 159kts
27-Sep-18 20:58 34.676574 -118.313915 321 12734ft 164kts
27-Sep-18 20:59 34.712376 -118.348488 321 12731ft 164kts
27-Sep-18 21:00 34.748145 -118.383083 321 12735ft 164kts
27-Sep-18 21:01 34.783911 -118.417790 321 12737ft 164kts
27-Sep-18 21:02 34.819459 -118.452415 321 12763ft 163kts
27-Sep-18 21:03 34.854848 -118.487063 321 12767ft 164kts
27-Sep-18 21:04 34.890405 -118.522008 321 12771ft 164kts
27-Sep-18 21:05 34.925802 -118.556892 321 12777ft 164kts
27-Sep-18 21:06 34.961140 -118.591966 321 12774ft 165kts
27-Sep-18 21:07 34.998160 -118.628851 321 11878ft 173kts
27-Sep-18 21:08 35.034826 -118.664824 321 11121ft 171kts
27-Sep-18 21:09 35.072121 -118.700791 321 10381ft 170kts
27-Sep-18 21:10 35.108695 -118.735478 322 9682ft 168kts
27-Sep-18 21:11 35.145742 -118.770276 320 9002ft 167kts
27-Sep-18 21:12 35.181677 -118.805746 321 8351ft 165kts
27-Sep-18 21:13 35.217554 -118.840635 321 7727ft 164kts
27-Sep-18 21:14 35.253297 -118.874898 322 7128ft 163kts
27-Sep-18 21:15 35.289197 -118.908640 322 6542ft 162kts
27-Sep-18 21:16 35.325256 -118.941858 323 5970ft 162kts
27-Sep-18 21:17 35.361008 -118.975142 321 4994ft 159kts
27-Sep-18 21:18 35.395123 -119.009567 317 3036ft 155kts
27-Sep-18 21:19 35.418861 -119.038188 316 876ft 84kts
27-Sep-18 21:20 35.436516 -119.059441 316 508ft 85kts
27-Sep-18 21:21 35.441900 -119.064905 12 499ft 0kts
27-Sep-18 21:22 35.441213 -119.062890 135 498ft 18kts
27-Sep-18 21:23 35.437682 -119.058627 134 495ft 19kts
27-Sep-18 21:24 35.437906 -119.056568 135 498ft 0kts
27-Sep-18 21:25 35.437906 -119.056568 135 498ft 0kts
27-Sep-18 21:26 35.437906 -119.056568 135 498ft 0kts

Navigation Log

Ident Type
Flight plan parsing failed, navigation log unavailable